Time;durP1;ratioP1;P1;durP2;ratioP2;P2;SDS_P1;SDS_P2;PMS_P1;PMS_P2;Temp;Humidity;BMP_temperature;BMP_pressure;BME280_temperature;BME280_humidity;BME280_pressure;Samples;Min_cycle;Max_cycle;Signal;HPM_P1;HPM_P2
2022/06/21 00:02:07;;;;;;;11.93;6.03;;;;;;;10.42;91.63;101711.53;5055203;28;20033;-74
2022/06/21 00:04:33;;;;;;;12.48;6.00;;;;;;;10.43;92.27;101710.56;5061827;28;20048;-73
2022/06/21 00:07:02;;;;;;;9.15;5.80;;;;;;;10.37;91.85;101714.41;5069582;28;20076;-73
2022/06/21 00:09:27;;;;;;;10.70;5.55;;;;;;;10.28;91.50;101712.19;5055342;28;20024;-74
2022/06/21 00:11:53;;;;;;;11.82;5.97;;;;;;;10.33;92.27;101715.50;5051825;28;20041;-73
2022/06/21 00:14:19;;;;;;;14.05;6.60;;;;;;;10.61;91.46;101710.53;5050539;28;20035;-74
2022/06/21 00:16:44;;;;;;;10.25;5.03;;;;;;;10.65;90.83;101715.75;5067726;28;20044;-74
2022/06/21 00:19:19;;;;;;;9.30;5.35;;;;;;;10.56;91.88;101717.91;5067702;28;20037;-74
2022/06/21 00:21:46;;;;;;;13.48;5.90;;;;;;;10.40;92.55;101716.94;5058845;28;20033;-74
2022/06/21 00:24:12;;;;;;;13.18;6.13;;;;;;;10.51;92.23;101716.41;5065069;28;20068;-75
2022/06/21 00:26:37;;;;;;;11.00;6.38;;;;;;;10.54;92.27;101714.47;5067713;28;20114;-74
2022/06/21 00:29:03;;;;;;;15.13;7.03;;;;;;;10.48;92.53;101711.22;5075564;28;20041;-74
2022/06/21 00:31:31;;;;;;;16.83;7.07;;;;;;;10.54;91.98;101702.91;5052862;28;20045;-76
2022/06/21 00:33:57;;;;;;;13.93;6.90;;;;;;;10.43;93.25;101707.91;5052676;28;20045;-73
2022/06/21 00:36:28;;;;;;;12.10;5.85;;;;;;;10.24;92.71;101700.84;5067231;28;20021;-73
2022/06/21 00:38:56;;;;;;;13.05;6.72;;;;;;;10.07;94.67;101698.91;5060929;28;20121;-74
2022/06/21 00:41:52;;;;;;;10.30;5.82;;;;;;;10.20;93.47;101693.88;5060753;28;20045;-75
2022/06/21 00:44:34;;;;;;;14.00;6.90;;;;;;;10.16;93.48;101697.63;5048009;28;20065;-74
2022/06/21 00:47:24;;;;;;;18.42;6.80;;;;;;;10.21;92.83;101700.94;5066019;28;20087;-74
2022/06/21 00:49:59;;;;;;;9.15;5.35;;;;;;;10.16;92.98;101699.44;5084768;28;20064;-75
2022/06/21 00:52:38;;;;;;;12.20;6.22;;;;;;;9.99;92.69;101695.78;5050648;28;20048;-75
2022/06/21 00:55:10;;;;;;;9.23;5.88;;;;;;;10.04;91.83;101698.19;5062684;28;20045;-74
2022/06/21 00:57:47;;;;;;;13.00;6.45;;;;;;;10.01;90.99;101685.03;5069928;28;20036;-74
2022/06/21 01:00:32;;;;;;;8.95;5.70;;;;;;;9.70;91.79;101685.59;5069290;28;20047;-74
2022/06/21 01:03:02;;;;;;;10.40;5.65;;;;;;;9.67;91.57;101689.25;5057223;28;20051;-75
2022/06/21 01:05:31;;;;;;;11.05;5.75;;;;;;;9.78;91.36;101686.97;5070115;28;20033;-75
2022/06/21 01:07:57;;;;;;;10.50;6.07;;;;;;;9.71;91.70;101685.53;5072549;28;20036;-74
2022/06/21 01:10:24;;;;;;;9.18;5.80;;;;;;;9.58;92.06;101692.34;5072237;28;20044;-74
2022/06/21 01:13:08;;;;;;;12.95;5.18;;;;;;;9.53;91.01;101700.53;5071301;28;20035;-75
2022/06/21 01:15:44;;;;;;;8.43;5.20;;;;;;;9.69;90.61;101695.41;5051567;28;20463;-73
2022/06/21 01:18:12;;;;;;;12.85;6.25;;;;;;;9.78;91.34;101705.59;5070098;28;20033;-74
2022/06/21 01:20:43;;;;;;;10.40;6.45;;;;;;;9.82;90.74;101704.53;5070679;28;20050;-74
2022/06/21 01:23:33;;;;;;;12.43;6.07;;;;;;;9.74;90.95;101692.50;5071884;28;20029;-74
2022/06/21 01:26:40;;;;;;;8.45;5.72;;;;;;;9.73;90.85;101690.78;5054769;28;20037;-74
2022/06/21 01:29:09;;;;;;;10.50;5.95;;;;;;;9.55;92.21;101688.03;5068978;28;20040;-73
2022/06/21 01:31:35;;;;;;;8.75;5.07;;;;;;;9.50;90.82;101678.53;5072364;28;20033;-73
2022/06/21 01:34:00;;;;;;;10.70;5.28;;;;;;;9.42;91.72;101681.53;5072150;28;20029;-75
2022/06/21 01:36:33;;;;;;;10.48;5.53;;;;;;;9.36;91.23;101678.28;5071971;28;20028;-74
2022/06/21 01:39:05;;;;;;;13.73;7.10;;;;;;;9.40;93.04;101674.56;5071929;28;20021;-74
2022/06/21 01:41:40;;;;;;;11.98;7.28;;;;;;;9.30;94.21;101682.94;5054130;28;20057;-74
2022/06/21 01:44:11;;;;;;;13.02;7.00;;;;;;;9.16;95.38;101671.19;5071866;28;20068;-75
2022/06/21 01:46:36;;;;;;;16.95;7.68;;;;;;;9.12;95.55;101674.91;5071909;28;20029;-74
2022/06/21 01:49:13;;;;;;;14.13;7.38;;;;;;;9.20;94.41;101672.78;5086212;28;20052;-74
2022/06/21 01:51:53;;;;;;;10.20;6.47;;;;;;;9.22;93.50;101668.25;5082259;28;20033;-74
2022/06/21 01:54:23;;;;;;;12.00;6.30;;;;;;;9.15;94.62;101675.66;5056069;28;20059;-74
2022/06/21 01:56:49;;;;;;;9.23;6.82;;;;;;;9.01;94.38;101667.41;5071578;28;20029;-74
2022/06/21 01:59:22;;;;;;;7.95;5.50;;;;;;;9.01;93.35;101660.28;5071246;28;20037;-74
2022/06/21 02:02:06;;;;;;;8.40;5.65;;;;;;;8.88;93.16;101666.19;5071041;28;20021;-74
2022/06/21 02:04:38;;;;;;;9.65;3.95;;;;;;;8.70;91.51;101657.22;5070933;28;20021;-73
2022/06/21 02:07:08;;;;;;;10.20;5.43;;;;;;;8.76;91.45;101649.84;5071506;28;20025;-73
2022/06/21 02:09:43;;;;;;;7.70;5.28;;;;;;;8.74;92.53;101646.38;5050513;28;20025;-74
2022/06/21 02:12:14;;;;;;;9.32;5.30;;;;;;;8.77;93.44;101638.25;5063520;28;20051;-75
2022/06/21 02:14:45;;;;;;;10.88;6.30;;;;;;;8.68;93.84;101638.66;5085620;28;20055;-74
2022/06/21 02:17:46;;;;;;;10.68;5.93;;;;;;;8.71;93.89;101648.31;5071213;28;20063;-72
2022/06/21 02:20:43;;;;;;;16.45;7.50;;;;;;;8.84;95.69;101652.19;5023715;28;20114;-73
2022/06/21 02:23:12;;;;;;;15.07;8.75;;;;;;;9.04;94.48;101659.28;5073295;28;20567;-72
2022/06/21 02:25:40;;;;;;;14.38;8.32;;;;;;;9.04;94.96;101656.63;5082073;28;20037;-73
2022/06/21 02:28:08;;;;;;;11.75;8.27;;;;;;;9.02;94.59;101653.16;5051326;28;20540;-73
2022/06/21 02:30:36;;;;;;;10.07;6.15;;;;;;;8.99;93.13;101655.97;5070957;28;20193;-74
2022/06/21 02:33:04;;;;;;;10.52;6.32;;;;;;;8.81;93.12;101647.84;5070513;28;20032;-72
2022/06/21 02:35:53;;;;;;;12.20;5.40;;;;;;;8.63;92.89;101661.91;5081841;28;20101;-73
2022/06/21 02:38:25;;;;;;;10.80;6.00;;;;;;;8.66;93.75;101658.28;5041838;28;20045;-74
2022/06/21 02:40:55;;;;;;;;;;;;;;;8.77;93.37;101648.91;5086084;28;20041;-72
2022/06/21 02:43:28;;;;;;;8.38;6.78;;;;;;;8.77;94.67;101651.56;5070133;28;19932;-75
2022/06/21 02:46:00;;;;;;;11.32;6.85;;;;;;;8.77;94.03;101661.34;5069817;28;20085;-74
2022/06/21 02:48:34;;;;;;;11.52;7.13;;;;;;;8.82;93.86;101672.63;5070496;28;20025;-74
2022/06/21 02:51:09;;;;;;;12.63;7.80;;;;;;;8.86;94.34;101679.56;5070655;28;20055;-73
2022/06/21 02:53:47;;;;;;;16.85;7.97;;;;;;;8.94;94.58;101682.78;5070253;28;20037;-74
2022/06/21 02:56:24;;;;;;;10.45;7.57;;;;;;;8.92;95.02;101681.09;5086090;28;20054;-74
2022/06/21 02:58:54;;;;;;;17.23;9.15;;;;;;;8.94;94.74;101679.25;5070110;28;20056;-74
2022/06/21 03:01:39;;;;;;;14.52;8.18;;;;;;;8.85;94.36;101677.84;5051868;28;20055;-74
2022/06/21 03:04:06;;;;;;;18.83;8.27;;;;;;;8.85;93.80;101677.84;5068172;28;20020;-75
2022/06/21 03:06:33;;;;;;;10.75;7.30;;;;;;;8.63;93.30;101671.69;5070159;28;20043;-74
2022/06/21 03:09:03;;;;;;;12.13;6.43;;;;;;;8.43;91.52;101662.75;5052968;28;20113;-74
2022/06/21 03:11:34;;;;;;;10.07;5.82;;;;;;;8.34;93.11;101663.13;5052679;28;20028;-74
2022/06/21 03:14:11;;;;;;;11.23;6.68;;;;;;;8.44;95.19;101663.63;5070019;28;20035;-74
2022/06/21 03:16:38;;;;;;;13.65;7.30;;;;;;;8.46;94.09;101664.41;5068910;28;20044;-73
2022/06/21 03:19:06;;;;;;;13.50;7.82;;;;;;;8.59;94.46;101664.78;5069146;28;20087;-75
2022/06/21 03:21:35;;;;;;;11.30;6.80;;;;;;;8.60;93.39;101661.19;5068425;28;20033;-74
2022/06/21 03:24:05;;;;;;;13.38;6.80;;;;;;;8.61;93.35;101655.81;5068806;28;20088;-75
2022/06/21 03:26:32;;;;;;;15.45;7.00;;;;;;;8.68;92.45;101659.91;5051496;28;20048;-75
2022/06/21 03:28:58;;;;;;;11.75;7.20;;;;;;;8.79;92.46;101657.69;5069254;28;20039;-75
2022/06/21 03:31:36;;;;;;;9.60;6.63;;;;;;;8.82;92.29;101654.88;5069000;28;20045;-77
2022/06/21 03:34:06;;;;;;;11.00;6.57;;;;;;;8.52;90.38;101648.22;5068193;28;20352;-74
2022/06/21 03:36:32;;;;;;;10.48;6.13;;;;;;;8.53;90.70;101634.88;5049503;28;20041;-75
2022/06/21 03:39:03;;;;;;;11.18;8.10;;;;;;;9.05;91.05;101631.75;5067931;28;20012;-75
2022/06/21 03:41:44;;;;;;;16.17;6.72;;;;;;;9.02;91.55;101637.19;5068357;28;20079;-76
2022/06/21 03:44:37;;;;;;;12.23;7.88;;;;;;;8.58;94.93;101632.00;5067106;28;20064;-75
2022/06/21 03:47:09;;;;;;;13.02;7.40;;;;;;;8.80;94.22;101640.81;5062886;28;20112;-74
2022/06/21 03:49:48;;;;;;;14.85;8.65;;;;;;;8.73;96.05;101625.16;5067769;28;20025;-74
2022/06/21 03:52:42;;;;;;;15.45;8.93;;;;;;;8.80;96.95;101629.31;5074787;28;20033;-74
2022/06/21 03:55:38;;;;;;;14.85;8.93;;;;;;;9.19;94.49;101615.19;5027073;28;20051;-74
2022/06/21 03:58:14;;;;;;;15.32;8.15;;;;;;;9.14;94.19;101623.38;5067987;28;20037;-75
2022/06/21 04:01:09;;;;;;;15.20;9.43;;;;;;;9.16;94.66;101628.63;5072410;28;20043;-75
2022/06/21 04:03:44;;;;;;;17.08;10.52;;;;;;;9.21;96.01;101638.13;5071578;28;20059;-75
2022/06/21 04:06:30;;;;;;;23.42;9.88;;;;;;;9.38;94.55;101631.16;5060199;28;20096;-81
2022/06/21 04:09:00;;;;;;;15.52;10.02;;;;;;;9.51;94.18;101641.19;5070775;28;20036;-74
2022/06/21 04:11:36;;;;;;;14.57;10.55;;;;;;;9.73;93.54;101633.03;5068539;28;20032;-75
2022/06/21 04:14:07;;;;;;;23.10;10.45;;;;;;;9.79;92.69;101627.44;5066007;28;20064;-75
2022/06/21 04:16:45;;;;;;;23.08;9.90;;;;;;;9.87;93.77;101632.41;5067312;28;20045;-75
2022/06/21 04:19:19;;;;;;;20.98;10.07;;;;;;;10.02;93.65;101646.78;5049434;28;20055;-75
2022/06/21 04:21:57;;;;;;;17.02;9.80;;;;;;;10.07;93.97;101645.63;5049519;28;20037;-75
2022/06/21 04:24:32;;;;;;;17.65;10.05;;;;;;;10.14;93.82;101648.88;5079881;28;20049;-75
2022/06/21 04:27:06;;;;;;;22.15;11.50;;;;;;;10.13;94.11;101642.66;5073137;28;20025;-75
2022/06/21 04:29:38;;;;;;;24.10;11.57;;;;;;;10.18;94.93;101626.44;5087071;28;20052;-76
2022/06/21 04:32:06;;;;;;;22.13;12.65;;;;;;;10.32;95.18;101625.78;5064533;28;20048;-74
2022/06/21 04:34:50;;;;;;;20.20;11.38;;;;;;;10.37;94.72;101621.97;5064830;28;20045;-75
2022/06/21 04:37:53;;;;;;;23.90;11.02;;;;;;;10.36;96.15;101622.03;5084519;28;20028;-74
2022/06/21 04:40:30;;;;;;;;;;;;;;;10.32;96.41;101621.31;5085129;28;20079;-74
2022/06/21 04:43:06;;;;;;;22.63;11.73;;;;;;;10.42;96.28;101623.53;5069236;28;19925;-74
2022/06/21 04:45:53;;;;;;;24.20;11.95;;;;;;;10.56;95.92;101642.38;5065227;28;20121;-76
2022/06/21 04:48:47;;;;;;;19.55;10.77;;;;;;;10.72;95.44;101634.47;5067833;28;20032;-76
2022/06/21 04:51:31;;;;;;;24.88;11.73;;;;;;;10.96;94.45;101643.00;5071591;28;20043;-75
2022/06/21 04:54:03;;;;;;;18.48;10.43;;;;;;;11.41;93.26;101637.03;5070299;28;20029;-76
2022/06/21 04:56:54;;;;;;;21.02;11.25;;;;;;;13.63;84.31;101621.31;5067267;28;20029;-75
2022/06/21 04:59:28;;;;;;;15.93;9.45;;;;;;;14.44;79.80;101632.09;5065429;28;20052;-75
2022/06/21 05:01:54;;;;;;;15.23;8.70;;;;;;;15.81;74.00;101627.03;5065235;28;20048;-75
2022/06/21 05:04:26;;;;;;;14.27;8.15;;;;;;;17.44;67.70;101610.13;5077856;28;20056;-75
2022/06/21 05:06:55;;;;;;;11.77;7.97;;;;;;;18.89;63.12;101609.75;5064627;28;20033;-73
2022/06/21 05:09:23;;;;;;;8.65;6.40;;;;;;;19.53;60.72;101605.94;5056690;28;20036;-73
2022/06/21 05:12:00;;;;;;;14.80;6.82;;;;;;;20.27;57.47;101585.75;5060910;28;20028;-73
2022/06/21 05:14:29;;;;;;;13.23;6.50;;;;;;;20.21;57.69;101580.91;5072922;28;20613;-72
2022/06/21 05:16:55;;;;;;;10.70;5.65;;;;;;;21.07;55.62;101579.97;5059931;28;20029;-72
2022/06/21 05:19:33;;;;;;;8.27;6.00;;;;;;;20.80;56.55;101574.47;5056445;28;20565;-72
2022/06/21 05:22:07;;;;;;;13.70;6.13;;;;;;;20.17;58.53;101564.06;5045454;28;20048;-72
2022/06/21 05:24:33;;;;;;;13.93;5.15;;;;;;;19.07;61.64;101565.84;5045604;28;20029;-74
2022/06/21 05:27:07;;;;;;;14.00;5.15;;;;;;;18.61;63.03;101573.38;5062139;28;20043;-73
2022/06/21 05:30:00;;;;;;;9.35;5.32;;;;;;;18.49;63.74;101571.75;5060091;28;20040;-73
2022/06/21 05:32:34;;;;;;;10.15;5.25;;;;;;;18.19;64.84;101564.38;5072062;28;20470;-72
2022/06/21 05:35:09;;;;;;;11.98;5.70;;;;;;;18.31;65.40;101560.63;5044815;28;20055;-72
2022/06/21 05:37:45;;;;;;;13.00;5.78;;;;;;;18.57;65.22;101566.53;5049422;28;20072;-72
2022/06/21 05:40:22;;;;;;;11.18;5.00;;;;;;;18.41;64.47;101576.06;5065453;28;20059;-72
2022/06/21 05:42:47;;;;;;;12.48;4.85;;;;;;;17.88;67.05;101570.63;5056902;28;20140;-72
2022/06/21 05:45:15;;;;;;;9.07;3.80;;;;;;;17.36;67.71;101570.28;5049410;28;20052;-72
2022/06/21 05:47:43;;;;;;;10.68;3.75;;;;;;;18.70;64.66;101558.25;5046948;28;20041;-72
2022/06/21 05:50:16;;;;;;;9.23;4.53;;;;;;;18.88;63.66;101566.63;5056353;28;20483;-72
2022/06/21 05:52:47;;;;;;;4.82;2.95;;;;;;;19.31;62.90;101565.56;5057564;28;20041;-73
2022/06/21 05:55:24;;;;;;;9.48;2.92;;;;;;;18.72;64.40;101567.09;5056186;28;20099;-72
2022/06/21 05:58:06;;;;;;;6.22;3.10;;;;;;;18.52;64.82;101562.50;5045813;28;20041;-72
2022/06/21 06:00:50;;;;;;;9.18;3.80;;;;;;;18.78;64.60;101565.72;5042277;28;20133;-72
2022/06/21 06:03:29;;;;;;;13.15;4.05;;;;;;;18.68;64.56;101573.75;5048341;28;20081;-73
2022/06/21 06:05:56;;;;;;;14.95;3.38;;;;;;;19.55;61.45;101570.63;5041272;28;20132;-73
2022/06/21 06:08:30;;;;;;;9.50;3.13;;;;;;;19.43;60.68;101578.00;5049589;28;20043;-73
2022/06/21 06:10:57;;;;;;;4.65;2.88;;;;;;;19.76;61.40;101574.13;5051151;28;20673;-73
2022/06/21 06:13:32;;;;;;;7.22;2.78;;;;;;;19.58;60.31;101575.78;5034273;28;20092;-72
2022/06/21 06:16:02;;;;;;;5.97;2.17;;;;;;;19.89;59.78;101569.31;5046262;28;20063;-73
2022/06/21 06:18:38;;;;;;;10.05;2.38;;;;;;;19.04;62.08;101571.56;5029819;28;20517;-72
2022/06/21 06:21:23;;;;;;;8.43;2.72;;;;;;;19.39;60.88;101574.72;5047987;28;20045;-73
2022/06/21 06:23:54;;;;;;;6.72;2.53;;;;;;;18.85;64.00;101578.56;5047935;28;20132;-72
2022/06/21 06:26:26;;;;;;;7.05;1.90;;;;;;;19.69;60.94;101574.84;5047310;28;20138;-72
2022/06/21 06:28:58;;;;;;;8.75;2.10;;;;;;;20.36;60.20;101577.63;5045918;28;20040;-72
2022/06/21 06:31:29;;;;;;;;;;;;;;;20.48;57.78;101578.34;5045767;28;20083;-73
2022/06/21 06:34:10;;;;;;;8.98;2.70;;;;;;;20.61;57.63;101572.66;5045011;28;20445;-73
2022/06/21 06:36:48;;;;;;;7.47;2.57;;;;;;;20.26;57.23;101574.06;5023999;28;20060;-72
2022/06/21 06:39:22;;;;;;;6.15;2.20;;;;;;;20.27;56.51;101578.47;5044150;28;20044;-72
2022/06/21 06:41:50;;;;;;;6.63;2.10;;;;;;;20.42;57.57;101590.59;5045306;28;20056;-73
2022/06/21 06:44:18;;;;;;;8.35;2.20;;;;;;;20.54;56.39;101596.75;5045489;28;20048;-72
2022/06/21 06:46:48;;;;;;;3.70;2.30;;;;;;;19.78;59.32;101595.63;5026197;28;20083;-73
2022/06/21 06:49:25;;;;;;;4.95;2.35;;;;;;;19.69;58.20;101594.63;5046485;28;20102;-72
2022/06/21 06:51:56;;;;;;;6.30;2.35;;;;;;;19.68;58.65;101598.34;5027689;28;20143;-72
2022/06/21 06:54:59;;;;;;;10.73;2.20;;;;;;;20.59;57.76;101594.47;5047392;28;20041;-72
2022/06/21 06:57:40;;;;;;;5.72;2.33;;;;;;;20.15;58.27;101591.31;5045218;28;20036;-72
2022/06/21 07:00:18;;;;;;;9.83;2.37;;;;;;;20.73;56.00;101612.13;5044503;28;20132;-72
2022/06/21 07:02:52;;;;;;;8.18;2.00;;;;;;;21.51;55.98;101611.97;5034976;28;20531;-72
2022/06/21 07:05:31;;;;;;;5.22;2.28;;;;;;;20.35;55.02;101613.84;5028710;28;20090;-72
2022/06/21 07:08:26;;;;;;;4.60;1.90;;;;;;;21.33;55.62;101620.88;5040460;28;20033;-72
2022/06/21 07:10:54;;;;;;;6.05;1.95;;;;;;;21.52;53.20;101628.09;5050227;28;20068;-72
2022/06/21 07:13:20;;;;;;;10.85;2.05;;;;;;;21.22;55.64;101626.44;5046685;28;20033;-73
2022/06/21 07:15:48;;;;;;;10.93;2.85;;;;;;;21.30;52.86;101628.44;5046612;28;20463;-72
2022/06/21 07:18:25;;;;;;;5.70;2.17;;;;;;;20.91;55.66;101623.97;5056783;28;20037;-72
2022/06/21 07:20:50;;;;;;;4.38;2.22;;;;;;;21.10;54.06;101635.78;5045027;28;20558;-75
2022/06/21 07:23:20;;;;;;;6.75;2.60;;;;;;;21.71;53.11;101638.03;5023915;28;20102;-75
2022/06/21 07:25:49;;;;;;;7.70;2.15;;;;;;;21.24;52.31;101635.31;5023249;28;20033;-74
2022/06/21 07:28:29;;;;;;;3.92;2.35;;;;;;;20.69;52.85;101638.69;5060395;28;20060;-73
2022/06/21 07:30:58;;;;;;;10.82;2.20;;;;;;;20.61;53.65;101634.97;5039129;28;20056;-74
2022/06/21 07:33:31;;;;;;;8.10;2.00;;;;;;;20.83;53.74;101634.66;5047139;28;20029;-74
2022/06/21 07:36:03;;;;;;;5.05;1.77;;;;;;;20.54;54.91;101629.28;5027256;28;20036;-74
2022/06/21 07:38:37;;;;;;;2.95;1.20;;;;;;;21.13;52.34;101639.03;5045684;28;20048;-74
2022/06/21 07:41:51;;;;;;;5.68;1.10;;;;;;;20.71;51.82;101634.97;5046412;28;20553;-74
2022/06/21 07:44:25;;;;;;;4.57;1.73;;;;;;;21.01;52.72;101632.06;5014952;28;20048;-74
2022/06/21 07:46:56;;;;;;;13.27;1.92;;;;;;;20.74;52.06;101638.25;5032977;28;20056;-74
2022/06/21 07:49:26;;;;;;;10.90;2.42;;;;;;;21.15;50.24;101636.19;5041574;28;20032;-74
2022/06/21 07:52:08;;;;;;;5.68;1.45;;;;;;;21.72;53.22;101634.28;5050023;28;20486;-74
2022/06/21 07:54:41;;;;;;;2.85;1.50;;;;;;;20.53;52.98;101632.13;5041266;28;20045;-75
2022/06/21 07:57:20;;;;;;;6.10;1.75;;;;;;;20.93;50.75;101635.53;5041601;28;20044;-75
2022/06/21 07:59:54;;;;;;;5.28;2.10;;;;;;;20.45;53.51;101630.09;5041170;28;20213;-76
2022/06/21 08:08:06;;;;;;;4.10;1.70;;;;;;;21.68;48.75;101611.16;5047788;28;20079;-77
2022/06/21 08:10:41;;;;;;;7.82;1.67;;;;;;;21.08;51.93;101608.78;5046899;28;20044;-75
2022/06/21 08:13:07;;;;;;;5.45;1.95;;;;;;;20.44;53.88;101606.72;5042042;28;20044;-76
2022/06/21 08:15:41;;;;;;;9.45;2.60;;;;;;;20.95;53.71;101602.84;5033990;28;20052;-76
2022/06/21 08:18:37;;;;;;;4.00;1.70;;;;;;;21.33;49.60;101601.88;5044743;28;20079;-75
2022/06/21 08:21:18;;;;;;;4.60;1.58;;;;;;;21.30;49.39;101599.47;5033842;28;20053;-75
2022/06/21 08:23:56;;;;;;;4.35;2.15;;;;;;;21.78;50.47;101590.25;5039359;28;20037;-75
2022/06/21 08:26:31;;;;;;;5.53;2.40;;;;;;;22.46;47.84;101585.19;5035896;28;20049;-75
2022/06/21 08:29:11;;;;;;;5.55;1.70;;;;;;;21.69;51.53;101594.75;5048789;28;20115;-75
2022/06/21 08:31:40;;;;;;;4.47;2.05;;;;;;;21.98;52.46;101593.69;5044829;28;20511;-75
2022/06/21 08:34:25;;;;;;;8.45;1.95;;;;;;;22.15;48.73;101586.63;5041228;28;20090;-75
2022/06/21 08:36:55;;;;;;;5.80;1.88;;;;;;;22.81;50.19;101585.31;5040627;28;20045;-75
2022/06/21 08:39:40;;;;;;;5.22;1.83;;;;;;;21.90;49.59;101586.31;5040360;28;20052;-76
2022/06/21 08:42:24;;;;;;;2.72;1.83;;;;;;;21.94;49.43;101578.72;5040519;28;20064;-75
2022/06/21 08:45:40;;;;;;;5.63;1.90;;;;;;;21.56;50.27;101571.66;5041186;28;20045;-75
2022/06/21 08:47:54;;;;;;;5.50;1.50;;;;;;;21.40;52.46;101570.44;5019920;28;20041;-75
2022/06/21 08:50:42;;;;;;;5.30;2.25;;;;;;;22.17;48.11;101560.97;5044753;28;20352;-75
2022/06/21 08:53:29;;;;;;;3.90;1.13;;;;;;;21.60;48.84;101560.34;5040655;28;20079;-75
2022/06/21 08:56:20;;;;;;;6.43;1.70;;;;;;;22.00;47.87;101559.09;5047223;28;20744;-75
2022/06/21 08:59:01;;;;;;;3.47;1.27;;;;;;;21.66;46.68;101557.03;5050588;28;20044;-75
2022/06/21 09:01:49;;;;;;;4.80;1.33;;;;;;;21.54;45.68;101550.09;5041905;28;20037;-75
2022/06/21 09:04:24;;;;;;;7.50;1.63;;;;;;;20.95;48.87;101549.47;5046065;28;20139;-76
2022/06/21 09:06:53;;;;;;;4.40;1.52;;;;;;;21.63;50.00;101548.31;5052294;28;20552;-75
2022/06/21 09:09:37;;;;;;;4.35;1.40;;;;;;;22.14;44.88;101549.56;5044438;28;20048;-76
2022/06/21 09:12:29;;;;;;;7.63;1.50;;;;;;;22.22;46.92;101558.66;5044422;28;20040;-75
2022/06/21 09:15:14;;;;;;;6.13;2.03;;;;;;;21.48;47.11;101553.41;5025797;28;20033;-75
2022/06/21 09:18:04;;;;;;;4.60;1.40;;;;;;;21.49;47.24;101552.41;5043918;28;20099;-75
2022/06/21 09:20:42;;;;;;;4.88;1.50;;;;;;;21.14;47.26;101544.97;5032605;28;20095;-74
2022/06/21 09:23:28;;;;;;;5.18;1.63;;;;;;;21.83;50.22;101543.63;5043573;28;20048;-75
2022/06/21 09:26:31;;;;;;;2.50;1.40;;;;;;;21.51;47.56;101536.81;5043207;28;20071;-75
2022/06/21 09:29:12;;;;;;;7.28;1.75;;;;;;;20.97;47.00;101541.16;5043775;28;20045;-76
2022/06/21 09:31:52;;;;;;;3.58;1.50;;;;;;;20.82;49.09;101538.06;5043641;28;20040;-76
2022/06/21 09:34:26;;;;;;;2.38;1.40;;;;;;;20.65;49.04;101538.84;5032400;28;20037;-76
2022/06/21 09:37:21;;;;;;;4.55;1.90;;;;;;;21.19;48.88;101524.53;5055385;28;20633;-77
2022/06/21 09:39:54;;;;;;;4.95;1.50;;;;;;;21.92;48.79;101529.13;5044315;28;20037;-76
2022/06/21 09:42:33;;;;;;;5.07;1.75;;;;;;;21.97;50.83;101526.81;5044683;28;20052;-76
2022/06/21 09:45:33;;;;;;;5.65;1.35;;;;;;;21.11;46.02;101518.16;5042655;28;20097;-73
2022/06/21 09:48:13;;;;;;;4.75;1.60;;;;;;;21.32;47.44;101512.50;5046080;28;20029;-74
2022/06/21 09:51:21;;;;;;;4.30;1.60;;;;;;;21.47;46.01;101513.69;5054299;28;20060;-74
2022/06/21 09:54:12;;;;;;;4.57;1.27;;;;;;;21.30;49.23;101512.66;5050938;28;20109;-78
2022/06/21 09:56:52;;;;;;;3.88;1.63;;;;;;;20.42;49.14;101522.84;5050886;28;20057;-74
2022/06/21 09:59:34;;;;;;;2.88;1.17;;;;;;;21.65;48.06;101505.59;5045894;28;20048;-74
2022/06/21 10:02:08;;;;;;;7.63;1.23;;;;;;;21.50;47.62;101499.84;5044069;28;20040;-75
2022/06/21 10:04:48;;;;;;;3.90;2.15;;;;;;;20.92;48.47;101505.50;5043407;28;20047;-75
2022/06/21 10:07:39;;;;;;;5.30;1.50;;;;;;;22.39;47.29;101488.13;5042906;28;20048;-75
2022/06/21 10:10:05;;;;;;;2.40;1.27;;;;;;;22.49;43.93;101478.00;5040413;28;20087;-75
2022/06/21 10:12:33;;;;;;;3.08;1.83;;;;;;;21.34;47.94;101484.22;5052533;28;20037;-74
2022/06/21 10:15:09;;;;;;;4.88;1.75;;;;;;;21.71;45.75;101483.28;5050502;28;20094;-74
2022/06/21 10:17:40;;;;;;;4.15;1.95;;;;;;;21.23;48.98;101494.38;5046028;28;20041;-74
2022/06/21 10:20:28;;;;;;;5.20;2.05;;;;;;;20.97;49.12;101499.63;5049965;28;20041;-74
2022/06/21 10:23:05;;;;;;;4.95;2.15;;;;;;;21.18;47.56;101492.97;5033306;28;20042;-73
2022/06/21 10:25:41;;;;;;;4.75;1.75;;;;;;;22.19;51.02;101487.50;5043004;28;20130;-74
2022/06/21 10:28:26;;;;;;;3.70;2.00;;;;;;;22.87;48.44;101482.16;5048888;28;20731;-74
2022/06/21 10:30:57;;;;;;;4.78;1.40;;;;;;;22.55;47.69;101469.25;5045600;28;20048;-74
2022/06/21 10:33:41;;;;;;;10.02;1.17;;;;;;;22.31;43.99;101460.91;5047668;28;20044;-75
2022/06/21 10:36:17;;;;;;;4.82;1.92;;;;;;;22.68;46.39;101455.19;5045090;28;20049;-75
2022/06/21 10:39:19;;;;;;;6.90;1.60;;;;;;;23.35;42.20;101453.50;5048089;28;20069;-74
2022/06/21 10:44:57;;;;;;;4.20;1.17;;;;;;;23.47;47.40;101444.00;5018003;28;20053;-74
2022/06/21 10:47:43;;;;;;;4.07;1.00;;;;;;;22.32;48.06;101449.88;5019144;28;20132;-75
2022/06/21 10:50:38;;;;;;;4.63;1.70;;;;;;;21.30;49.76;101462.94;5022242;28;20159;-74
2022/06/21 10:53:24;;;;;;;2.47;1.10;;;;;;;23.11;45.79;101459.69;5021283;28;20060;-73
2022/06/21 10:57:09;;;;;;;2.92;1.15;;;;;;;23.36;45.83;101459.78;5029002;28;20049;-75
2022/06/21 10:59:02;;;;;;;1.90;1.08;;;;;;;22.85;45.91;101465.16;5026644;28;20053;-74
2022/06/21 11:01:32;;;;;;;4.55;1.50;;;;;;;23.03;44.35;101456.09;4990118;28;20553;-74
2022/06/21 11:04:30;;;;;;;4.90;1.48;;;;;;;23.18;42.32;101462.59;5019248;28;20053;-74
2022/06/21 11:07:02;;;;;;;2.72;1.23;;;;;;;22.89;40.93;101462.97;4974812;28;20176;-74
2022/06/21 11:10:01;;;;;;;2.25;1.00;;;;;;;22.72;42.14;101472.91;4960512;28;20057;-74
2022/06/21 11:12:53;;;;;;;2.13;1.00;;;;;;;23.65;42.31;101468.41;4947431;28;20065;-74
2022/06/21 11:15:44;;;;;;;3.42;1.23;;;;;;;23.99;39.69;101472.84;4964871;28;20096;-74
2022/06/21 11:18:31;;;;;;;1.85;1.30;;;;;;;23.36;40.76;101465.25;4960559;28;20043;-73
2022/06/21 11:21:08;;;;;;;6.05;1.83;;;;;;;22.80;40.97;101474.81;4978834;28;20099;-74
2022/06/21 11:24:06;;;;;;;3.03;1.30;;;;;;;24.02;43.22;101459.75;4973772;28;20062;-74
2022/06/21 11:27:01;;;;;;;4.22;1.40;;;;;;;24.20;43.05;101451.41;4976657;28;20052;-74
2022/06/21 11:29:44;;;;;;;8.45;1.38;;;;;;;24.17;42.62;101445.44;4979185;28;20054;-74
2022/06/21 11:32:31;;;;;;;4.47;1.25;;;;;;;24.43;39.07;101448.00;4975368;28;20057;-74
2022/06/21 11:35:09;;;;;;;3.70;1.27;;;;;;;22.78;43.78;101453.22;4979284;28;20046;-73
2022/06/21 11:37:42;;;;;;;2.78;1.55;;;;;;;24.06;38.60;101443.91;4974586;28;20037;-73
2022/06/21 11:40:30;;;;;;;2.58;1.40;;;;;;;24.95;38.20;101437.47;4989499;28;20592;-73
2022/06/21 11:42:58;;;;;;;3.17;1.13;;;;;;;24.20;43.96;101440.50;5040639;28;20139;-74
2022/06/21 11:45:35;;;;;;;4.65;1.40;;;;;;;24.53;39.26;101433.16;5047134;28;20085;-73
2022/06/21 11:48:41;;;;;;;1.85;1.08;;;;;;;23.86;44.49;101446.13;5042085;28;20045;-73
2022/06/21 11:51:09;;;;;;;2.95;1.48;;;;;;;24.24;43.21;101441.84;5038498;28;20051;-73
2022/06/21 11:54:00;;;;;;;6.30;1.70;;;;;;;24.14;47.82;101451.22;5041225;28;20067;-73
2022/06/21 11:56:36;;;;;;;3.28;1.50;;;;;;;23.68;48.42;101450.88;5041747;28;20463;-73
2022/06/21 11:59:25;;;;;;;2.80;1.48;;;;;;;23.64;43.02;101449.50;5039840;28;20076;-74
2022/06/21 12:02:29;;;;;;;3.35;1.45;;;;;;;24.08;41.73;101443.75;5027589;28;20045;-74
2022/06/21 12:05:22;;;;;;;6.75;1.42;;;;;;;24.07;43.65;101445.63;5040447;28;20047;-74
2022/06/21 12:08:15;;;;;;;8.35;2.03;;;;;;;22.70;43.15;101445.88;5045457;28;20037;-74
2022/06/21 12:10:57;;;;;;;5.88;1.60;;;;;;;22.86;45.12;101430.66;5058350;28;20040;-73
2022/06/21 12:13:52;;;;;;;6.53;1.77;;;;;;;22.31;45.86;101447.31;5028212;28;20771;-73
2022/06/21 12:16:36;;;;;;;9.43;2.45;;;;;;;22.75;44.37;101440.81;5023236;28;20055;-73
2022/06/21 12:19:10;;;;;;;3.28;1.33;;;;;;;23.41;43.08;101425.59;5042883;28;20087;-75
2022/06/21 12:21:43;;;;;;;4.78;1.20;;;;;;;23.72;40.67;101430.44;5041009;28;20041;-74